createdAt,value
2022-09-06T00:00:58.485Z,7.72
2022-09-06T00:03:25.235Z,7.45
2022-09-06T00:05:51.656Z,7.78
2022-09-06T00:08:18.022Z,6.95
2022-09-06T00:10:44.360Z,7.85
2022-09-06T00:13:11.225Z,8.13
2022-09-06T00:15:37.796Z,8.90
2022-09-06T00:18:07.305Z,8.32
2022-09-06T00:20:37.552Z,7.97
2022-09-06T00:23:05.501Z,8.43
2022-09-06T00:25:32.381Z,9.77
2022-09-06T00:28:01.617Z,7.97
2022-09-06T00:30:29.672Z,10.63
2022-09-06T00:32:56.405Z,8.82
2022-09-06T00:35:24.319Z,10.10
2022-09-06T00:37:51.815Z,9.40
2022-09-06T00:40:18.448Z,11.73
2022-09-06T00:42:44.811Z,11.20
2022-09-06T00:45:11.841Z,9.43
2022-09-06T00:47:41.401Z,9.60
2022-09-06T00:50:10.094Z,8.90
2022-09-06T00:52:37.782Z,10.20
2022-09-06T00:55:04.605Z,11.20
2022-09-06T00:57:31.111Z,10.48
2022-09-06T00:59:59.389Z,11.05
2022-09-06T01:02:26.118Z,8.43
2022-09-06T01:04:53.516Z,9.63
2022-09-06T01:07:31.994Z,9.40
2022-09-06T01:10:17.150Z,9.50
2022-09-06T01:13:02.273Z,12.50
2022-09-06T01:15:52.758Z,12.27
2022-09-06T01:18:38.808Z,10.60
2022-09-06T01:21:20.740Z,10.23
2022-09-06T01:24:18.198Z,11.25
2022-09-06T01:27:11.766Z,10.98
2022-09-06T01:29:52.869Z,13.20
2022-09-06T01:32:41.150Z,11.60
2022-09-06T01:35:20.409Z,9.48
2022-09-06T01:37:47.393Z,11.40
2022-09-06T01:40:13.771Z,11.95
2022-09-06T01:42:41.394Z,10.13
2022-09-06T01:45:10.985Z,10.35
2022-09-06T01:47:47.103Z,12.52
2022-09-06T01:50:32.316Z,12.52
2022-09-06T01:53:41.997Z,12.00
2022-09-06T01:56:22.293Z,15.00
2022-09-06T01:59:00.760Z,12.68
2022-09-06T02:02:20.339Z,12.43
2022-09-06T02:04:55.685Z,15.13
2022-09-06T02:07:27.378Z,15.50
2022-09-06T02:09:58.591Z,13.82
2022-09-06T02:12:28.029Z,16.80
2022-09-06T02:15:02.248Z,14.27
2022-09-06T02:17:35.419Z,13.57
2022-09-06T02:20:27.052Z,13.88
2022-09-06T02:22:57.093Z,12.52
2022-09-06T02:25:29.828Z,13.52
2022-09-06T02:27:56.311Z,12.18
2022-09-06T02:30:23.286Z,13.68
2022-09-06T02:33:04.535Z,15.80
2022-09-06T02:35:31.082Z,14.27
2022-09-06T02:37:57.476Z,16.73
2022-09-06T02:40:24.325Z,14.95
2022-09-06T02:42:50.660Z,15.73
2022-09-06T02:45:17.025Z,16.05
2022-09-06T02:47:43.368Z,16.10
2022-09-06T02:50:09.827Z,16.05
2022-09-06T02:52:36.176Z,14.55
2022-09-06T02:55:02.606Z,16.65
2022-09-06T02:57:28.954Z,14.77
2022-09-06T02:59:55.311Z,14.25
2022-09-06T03:02:21.723Z,15.60
2022-09-06T03:04:48.113Z,16.75
2022-09-06T03:07:14.456Z,14.68
2022-09-06T03:09:40.776Z,15.77
2022-09-06T03:12:07.296Z,17.25
2022-09-06T03:14:33.632Z,18.55
2022-09-06T03:17:00.014Z,17.15
2022-09-06T03:19:26.433Z,16.63
2022-09-06T03:21:52.772Z,17.33
2022-09-06T03:24:19.091Z,17.33
2022-09-06T03:26:45.425Z,19.10
2022-09-06T03:29:11.773Z,17.95
2022-09-06T03:31:38.217Z,17.73
2022-09-06T03:34:07.997Z,19.92
2022-09-06T03:36:36.754Z,17.85
2022-09-06T03:39:03.217Z,20.73
2022-09-06T03:41:29.560Z,20.55
2022-09-06T03:43:55.905Z,16.70
2022-09-06T03:46:22.291Z,19.30
2022-09-06T03:48:48.652Z,20.80
2022-09-06T03:51:15.001Z,19.65
2022-09-06T03:53:41.361Z,23.35
2022-09-06T03:56:07.704Z,18.48
2022-09-06T03:58:34.047Z,23.83
2022-09-06T04:01:08.755Z,19.23
2022-09-06T04:03:36.400Z,18.38
2022-09-06T04:06:04.036Z,18.88
2022-09-06T04:08:30.779Z,17.80
2022-09-06T04:10:58.141Z,18.48
2022-09-06T04:13:26.120Z,19.17
2022-09-06T04:15:52.831Z,19.65
2022-09-06T04:18:20.559Z,21.38
2022-09-06T04:20:51.917Z,22.38
2022-09-06T04:23:19.398Z,20.73
2022-09-06T04:25:49.512Z,18.88
2022-09-06T04:28:16.722Z,20.17
2022-09-06T04:30:43.064Z,20.65
2022-09-06T04:33:09.433Z,18.58
2022-09-06T04:35:36.129Z,20.38
2022-09-06T04:38:03.829Z,19.65
2022-09-06T04:40:30.392Z,16.45
2022-09-06T04:42:56.808Z,18.05
2022-09-06T04:45:23.143Z,16.60
2022-09-06T04:47:49.507Z,19.92
2022-09-06T04:50:15.868Z,22.40
2022-09-06T04:52:42.192Z,20.70
2022-09-06T04:55:09.025Z,19.75
2022-09-06T04:57:35.354Z,20.58
2022-09-06T05:00:01.811Z,20.40
2022-09-06T05:02:28.202Z,19.80
2022-09-06T05:04:54.632Z,19.63
2022-09-06T05:07:20.993Z,17.70
2022-09-06T05:09:47.325Z,19.63
2022-09-06T05:12:13.680Z,25.90
2022-09-06T05:14:39.992Z,23.25
2022-09-06T05:17:06.381Z,19.02
2022-09-06T05:19:32.716Z,25.77
2022-09-06T05:21:59.058Z,20.00
2022-09-06T05:24:25.409Z,19.15
2022-09-06T05:26:51.732Z,19.75
2022-09-06T05:29:18.103Z,15.77
2022-09-06T05:31:44.483Z,18.90
2022-09-06T05:34:10.890Z,19.40
2022-09-06T05:36:37.306Z,22.25
2022-09-06T05:39:03.758Z,20.55
2022-09-06T05:41:30.106Z,19.90
2022-09-06T05:43:56.439Z,16.65
2022-09-06T05:46:22.769Z,17.98
2022-09-06T05:48:53.825Z,18.48
2022-09-06T05:51:20.222Z,18.05
2022-09-06T05:53:46.617Z,22.02
2022-09-06T05:56:14.293Z,22.10
2022-09-06T05:58:40.694Z,24.35
2022-09-06T06:01:14.502Z,23.85
2022-09-06T06:03:40.929Z,23.90
2022-09-06T06:06:07.356Z,24.17
2022-09-06T06:08:35.243Z,22.45
2022-09-06T06:11:02.189Z,20.48
2022-09-06T06:13:29.233Z,18.25
2022-09-06T06:15:56.208Z,17.50
2022-09-06T06:18:22.704Z,19.45
2022-09-06T06:20:49.132Z,18.23
2022-09-06T06:23:15.604Z,18.30
2022-09-06T06:25:41.959Z,17.70
2022-09-06T06:28:08.307Z,17.25
2022-09-06T06:30:34.708Z,15.80
2022-09-06T06:33:01.111Z,16.15
2022-09-06T06:35:27.478Z,15.52
2022-09-06T06:37:53.811Z,16.77
2022-09-06T06:40:20.157Z,17.17
2022-09-06T06:42:46.498Z,15.45
2022-09-06T06:45:12.877Z,16.98
2022-09-06T06:47:39.234Z,15.98
2022-09-06T06:50:06.176Z,15.80
2022-09-06T06:52:32.534Z,14.65
2022-09-06T06:54:58.890Z,15.32
2022-09-06T06:57:25.240Z,16.70
2022-09-06T06:59:51.569Z,18.75
2022-09-06T07:02:18.099Z,17.05
2022-09-06T07:04:44.528Z,18.10
2022-09-06T07:12:43.647Z,17.00
2022-09-06T07:15:10.149Z,20.02
2022-09-06T07:17:36.492Z,14.35
2022-09-06T07:20:18.400Z,13.25
2022-09-06T07:22:44.756Z,21.38
2022-09-06T07:25:12.806Z,13.02
2022-09-06T07:27:48.870Z,13.25
2022-09-06T07:30:16.185Z,14.00
2022-09-06T07:32:42.600Z,16.73
2022-09-06T07:35:09.223Z,13.43
2022-09-06T07:37:35.588Z,11.68
2022-09-06T07:40:03.244Z,11.13
2022-09-06T07:42:35.657Z,12.10
2022-09-06T07:45:03.383Z,12.50
2022-09-06T07:53:13.145Z,12.00
2022-09-06T07:55:43.962Z,11.95
2022-09-06T07:58:10.322Z,10.32
2022-09-06T08:00:36.764Z,13.85
2022-09-06T08:03:03.189Z,10.63
2022-09-06T08:11:02.952Z,12.00
2022-09-06T08:13:29.681Z,12.20
2022-09-06T08:16:00.292Z,10.98
2022-09-06T08:18:26.829Z,9.32
2022-09-06T08:20:53.208Z,9.52
2022-09-06T08:23:19.593Z,9.35
2022-09-06T08:25:56.233Z,9.23
2022-09-06T08:28:25.601Z,9.43
2022-09-06T08:30:54.553Z,11.52
2022-09-06T08:33:21.015Z,10.13
2022-09-06T08:35:58.484Z,9.00
2022-09-06T08:38:25.017Z,9.23
2022-09-06T08:40:53.682Z,9.50
2022-09-06T08:43:22.160Z,9.10
2022-09-06T08:45:55.864Z,8.25
2022-09-06T08:48:25.211Z,9.18
2022-09-06T08:51:07.430Z,8.90
2022-09-06T08:53:41.417Z,9.77
2022-09-06T08:56:31.897Z,9.15
2022-09-06T08:59:07.313Z,9.70
2022-09-06T09:01:48.919Z,8.43
2022-09-06T09:04:20.197Z,8.20
2022-09-06T09:06:50.507Z,8.43
2022-09-06T09:09:16.909Z,10.23
2022-09-06T09:11:47.233Z,8.68
2022-09-06T09:14:46.717Z,8.80
2022-09-06T09:17:19.365Z,9.93
2022-09-06T09:19:46.161Z,9.88
2022-09-06T09:22:17.037Z,7.97
2022-09-06T09:24:44.118Z,9.13
2022-09-06T09:27:11.546Z,10.50
2022-09-06T09:32:42.290Z,9.43
2022-09-06T09:35:21.117Z,10.52
2022-09-06T09:37:50.620Z,7.38
2022-09-06T09:40:24.485Z,9.85
2022-09-06T09:42:51.858Z,7.95
2022-09-06T09:45:30.310Z,8.63
2022-09-06T09:47:57.224Z,9.13
2022-09-06T09:50:31.132Z,9.38
2022-09-06T09:53:09.243Z,9.65
2022-09-06T09:55:36.169Z,8.75
2022-09-06T09:58:03.562Z,9.60
2022-09-06T10:00:39.196Z,9.45
2022-09-06T10:03:20.220Z,9.13
2022-09-06T10:06:02.653Z,9.60
2022-09-06T10:08:32.392Z,9.27
2022-09-06T10:10:58.968Z,9.63
2022-09-06T10:13:27.990Z,10.55
2022-09-06T10:15:54.392Z,9.00
2022-09-06T10:18:20.747Z,9.95
2022-09-06T10:20:53.804Z,9.05
2022-09-06T10:26:46.104Z,10.15
2022-09-06T10:29:13.121Z,9.68
2022-09-06T10:31:39.475Z,10.57
2022-09-06T10:34:33.576Z,7.82
2022-09-06T10:37:36.966Z,10.02
2022-09-06T10:40:08.433Z,9.40
2022-09-06T10:45:27.565Z,9.25
2022-09-06T10:48:21.012Z,8.20
2022-09-06T10:51:12.329Z,8.45
2022-09-06T10:53:50.573Z,10.15
2022-09-06T10:56:39.717Z,10.63
2022-09-06T10:59:36.615Z,8.18
2022-09-06T11:02:13.041Z,12.70
2022-09-06T11:07:30.705Z,7.97
2022-09-06T11:10:18.642Z,10.05
2022-09-06T11:12:54.028Z,9.13
2022-09-06T11:15:22.624Z,9.00
2022-09-06T11:17:51.992Z,9.20
2022-09-06T11:20:31.382Z,10.10
2022-09-06T11:23:23.936Z,8.93
2022-09-06T11:26:28.953Z,8.75
2022-09-06T11:28:59.283Z,8.75
2022-09-06T11:34:31.561Z,9.07
2022-09-06T11:37:06.569Z,11.60
2022-09-06T11:42:43.965Z,9.93
2022-09-06T11:45:10.262Z,8.85
2022-09-06T11:47:45.345Z,8.23
2022-09-06T11:50:22.752Z,7.10
2022-09-06T11:55:32.235Z,10.32
2022-09-06T11:58:01.723Z,9.52
2022-09-06T12:00:28.253Z,9.75
2022-09-06T12:02:54.875Z,8.88
2022-09-06T12:05:31.475Z,8.95
2022-09-06T12:08:22.844Z,8.32
2022-09-06T12:10:57.411Z,9.13
2022-09-06T12:13:47.213Z,7.30
2022-09-06T12:16:15.062Z,6.30
2022-09-06T12:18:47.392Z,6.47
2022-09-06T12:21:40.110Z,7.10
2022-09-06T12:24:35.315Z,6.07
2022-09-06T12:27:13.449Z,7.80
2022-09-06T12:29:40.125Z,5.95
2022-09-06T12:32:06.600Z,6.45
2022-09-06T12:34:37.830Z,7.85
2022-09-06T12:37:06.118Z,6.00
2022-09-06T12:39:33.771Z,7.22
2022-09-06T12:42:10.739Z,6.18
2022-09-06T12:44:41.593Z,6.63
2022-09-06T12:47:22.270Z,6.13
2022-09-06T12:50:05.976Z,5.90
2022-09-06T12:52:32.341Z,6.13
2022-09-06T12:54:58.815Z,7.00
2022-09-06T12:57:25.829Z,8.30
2022-09-06T12:59:54.842Z,5.32
2022-09-06T13:02:38.330Z,5.10
2022-09-06T13:05:08.513Z,5.90
2022-09-06T13:07:41.125Z,5.57
2022-09-06T13:10:08.480Z,5.47
2022-09-06T13:12:39.071Z,6.90
2022-09-06T13:15:11.880Z,5.97
2022-09-06T13:17:38.745Z,6.35
2022-09-06T13:20:23.154Z,5.28
2022-09-06T13:22:51.315Z,5.57
2022-09-06T13:25:20.988Z,5.93
2022-09-06T13:27:55.504Z,5.13
2022-09-06T13:30:40.850Z,4.70
2022-09-06T13:33:08.449Z,4.38
2022-09-06T13:35:37.540Z,4.88
2022-09-06T13:38:31.185Z,5.32
2022-09-06T13:41:16.517Z,3.80
2022-09-06T13:43:45.672Z,4.95
2022-09-06T13:46:12.035Z,4.15
2022-09-06T13:48:38.894Z,5.50
2022-09-06T13:51:09.612Z,5.72
2022-09-06T13:53:36.005Z,5.82
2022-09-06T13:56:03.241Z,6.65
2022-09-06T13:58:29.788Z,5.22
2022-09-06T14:00:56.705Z,5.78
2022-09-06T14:03:31.508Z,6.75
2022-09-06T14:05:58.490Z,6.20
2022-09-06T14:08:24.977Z,4.82
2022-09-06T14:10:52.184Z,3.88
2022-09-06T14:13:19.608Z,8.18
2022-09-06T14:15:47.216Z,5.18
2022-09-06T14:18:14.555Z,4.65
2022-09-06T14:20:41.588Z,6.25
2022-09-06T14:23:08.280Z,4.57
2022-09-06T14:25:36.392Z,4.63
2022-09-06T14:28:04.052Z,6.22
2022-09-06T14:30:30.972Z,3.70
2022-09-06T14:32:57.755Z,4.82
2022-09-06T14:35:24.486Z,4.47
2022-09-06T14:37:51.222Z,5.30
2022-09-06T14:40:17.609Z,6.05
2022-09-06T14:42:47.546Z,4.43
2022-09-06T14:45:16.331Z,5.82
2022-09-06T14:47:42.862Z,5.68
2022-09-06T14:50:09.564Z,3.78
2022-09-06T14:52:36.035Z,8.60
2022-09-06T14:55:02.552Z,4.75
2022-09-06T14:57:28.972Z,3.90
2022-09-06T14:59:55.567Z,4.80
2022-09-06T15:02:22.166Z,5.50
2022-09-06T15:04:48.580Z,4.03
2022-09-06T15:07:14.909Z,5.93
2022-09-06T15:09:41.283Z,2.95
2022-09-06T15:12:07.672Z,2.95
2022-09-06T15:14:34.017Z,4.57
2022-09-06T15:17:00.404Z,5.60
2022-09-06T15:19:29.176Z,6.18
2022-09-06T15:21:56.519Z,4.97
2022-09-06T15:24:24.317Z,5.57
2022-09-06T15:26:50.777Z,3.67
2022-09-06T15:29:17.238Z,5.90
2022-09-06T15:31:44.109Z,3.92
2022-09-06T15:34:10.567Z,3.55
2022-09-06T15:36:37.445Z,6.57
2022-09-06T15:39:05.339Z,5.15
2022-09-06T15:41:34.561Z,3.15
2022-09-06T15:44:05.982Z,5.43
2022-09-06T15:46:35.133Z,4.15
2022-09-06T15:49:03.973Z,5.57
2022-09-06T15:51:30.639Z,3.97
2022-09-06T15:53:58.593Z,5.18
2022-09-06T15:56:24.999Z,4.60
2022-09-06T15:58:51.372Z,4.10
2022-09-06T16:01:23.255Z,6.28
2022-09-06T16:03:55.472Z,5.10
2022-09-06T16:09:11.810Z,4.63
2022-09-06T16:11:38.143Z,4.13
2022-09-06T16:14:07.322Z,6.07
2022-09-06T16:16:34.408Z,6.32
2022-09-06T16:19:00.861Z,7.63
2022-09-06T16:21:29.633Z,6.93
2022-09-06T16:23:57.734Z,6.90
2022-09-06T16:26:26.252Z,6.38
2022-09-06T16:28:53.284Z,8.35
2022-09-06T16:31:20.999Z,6.45
2022-09-06T16:33:47.955Z,6.78
2022-09-06T16:36:14.770Z,5.72
2022-09-06T16:38:42.089Z,5.90
2022-09-06T16:41:24.105Z,7.18
2022-09-06T16:43:51.454Z,8.45
2022-09-06T16:46:18.727Z,8.35
2022-09-06T16:49:00.872Z,6.72
2022-09-06T16:51:28.451Z,7.35
2022-09-06T16:53:56.248Z,7.38
2022-09-06T16:56:25.627Z,8.65
2022-09-06T16:58:57.083Z,6.30
2022-09-06T17:01:25.066Z,5.32
2022-09-06T17:03:51.567Z,6.50
2022-09-06T17:06:19.083Z,5.05
2022-09-06T17:08:45.615Z,6.95
2022-09-06T17:11:17.305Z,7.20
2022-09-06T17:13:45.923Z,5.97
2022-09-06T17:16:13.190Z,5.65
2022-09-06T17:18:39.643Z,5.85
2022-09-06T17:21:06.152Z,8.07
2022-09-06T17:23:33.233Z,5.00
2022-09-06T17:25:59.640Z,6.80
2022-09-06T17:28:26.638Z,6.85
2022-09-06T17:30:53.455Z,5.43
2022-09-06T17:33:20.677Z,6.55
2022-09-06T17:35:47.705Z,6.53
2022-09-06T17:38:15.414Z,4.97
2022-09-06T17:40:42.031Z,7.75
2022-09-06T17:43:08.428Z,5.63
2022-09-06T17:45:39.226Z,6.32
2022-09-06T17:48:05.923Z,6.68
2022-09-06T17:50:34.224Z,7.30
2022-09-06T17:53:00.912Z,5.70
2022-09-06T17:55:28.580Z,7.07
2022-09-06T17:57:56.038Z,5.68
2022-09-06T18:00:23.865Z,5.93
2022-09-06T18:02:50.283Z,6.90
2022-09-06T18:05:17.406Z,8.48
2022-09-06T18:07:43.829Z,7.00
2022-09-06T18:10:10.253Z,6.32
2022-09-06T18:12:36.588Z,6.97
2022-09-06T18:15:03.110Z,7.28
2022-09-06T18:17:29.488Z,8.65
2022-09-06T18:19:56.352Z,7.80
2022-09-06T18:22:22.697Z,6.72
2022-09-06T18:24:49.148Z,7.70
2022-09-06T18:27:15.739Z,6.85
2022-09-06T18:29:42.561Z,11.02
2022-09-06T18:32:09.172Z,7.03
2022-09-06T18:34:35.741Z,7.85
2022-09-06T18:37:02.072Z,11.68
2022-09-06T18:39:28.517Z,10.02
2022-09-06T18:41:54.894Z,10.35
2022-09-06T18:44:21.404Z,9.93
2022-09-06T18:46:47.827Z,17.42
2022-09-06T18:49:14.669Z,10.57
2022-09-06T18:51:41.386Z,9.15
2022-09-06T18:54:08.170Z,10.73
2022-09-06T18:56:34.529Z,10.75
2022-09-06T18:59:01.185Z,9.32
2022-09-06T19:01:29.302Z,11.20
2022-09-06T19:03:57.341Z,11.95
2022-09-06T19:06:24.172Z,15.50
2022-09-06T19:08:50.661Z,15.45
2022-09-06T19:11:18.426Z,15.13
2022-09-06T19:13:46.757Z,14.90
2022-09-06T19:16:14.231Z,16.80
2022-09-06T19:18:40.591Z,22.33
2022-09-06T19:21:11.240Z,17.98
2022-09-06T19:23:39.770Z,16.67
2022-09-06T19:26:09.493Z,17.65
2022-09-06T19:28:37.559Z,17.38
2022-09-06T19:31:09.280Z,16.88
2022-09-06T19:36:11.682Z,17.05
2022-09-06T19:39:01.460Z,20.23
2022-09-06T19:41:26.292Z,17.58
2022-09-06T19:43:54.805Z,16.70
2022-09-06T19:46:22.003Z,18.60
2022-09-06T19:48:50.384Z,18.27
2022-09-06T19:51:18.201Z,19.83
2022-09-06T19:53:48.659Z,15.07
2022-09-06T19:56:17.090Z,17.17
2022-09-06T19:58:44.646Z,15.15
2022-09-06T20:01:13.907Z,15.20
2022-09-06T20:03:40.312Z,14.27
2022-09-06T20:06:07.623Z,14.93
2022-09-06T20:08:35.102Z,14.48
2022-09-06T20:11:03.015Z,15.48
2022-09-06T20:13:30.300Z,16.83
2022-09-06T20:15:57.091Z,17.27
2022-09-06T20:18:24.168Z,17.67
2022-09-06T20:20:55.386Z,15.40
2022-09-06T20:23:21.848Z,17.83
2022-09-06T20:26:03.224Z,17.80
2022-09-06T20:28:30.168Z,19.52
2022-09-06T20:31:11.581Z,20.67
2022-09-06T20:33:38.012Z,19.27
2022-09-06T20:36:07.137Z,19.38
2022-09-06T20:38:39.828Z,20.08
2022-09-06T20:41:07.656Z,19.27
2022-09-06T20:43:35.445Z,22.05
2022-09-06T20:46:22.924Z,20.42
2022-09-06T20:48:49.662Z,21.42
2022-09-06T20:51:18.378Z,20.65
2022-09-06T20:53:46.476Z,21.60
2022-09-06T20:56:15.802Z,24.27
2022-09-06T20:58:46.852Z,22.10
2022-09-06T21:01:14.483Z,21.08
2022-09-06T21:03:42.285Z,21.92
2022-09-06T21:06:10.180Z,22.20
2022-09-06T21:08:40.656Z,24.02
2022-09-06T21:13:35.145Z,24.10
2022-09-06T21:16:02.172Z,24.90
2022-09-06T21:18:30.025Z,25.10
2022-09-06T21:20:59.557Z,32.35
2022-09-06T21:23:27.128Z,28.90
2022-09-06T21:25:53.418Z,30.73
2022-09-06T21:28:19.764Z,29.67
2022-09-06T21:30:46.117Z,29.23
2022-09-06T21:33:12.481Z,30.35
2022-09-06T21:35:38.837Z,30.25
2022-09-06T21:38:05.182Z,31.75
2022-09-06T21:40:34.722Z,27.00
2022-09-06T21:43:01.086Z,26.23
2022-09-06T21:45:27.437Z,27.08
2022-09-06T21:47:53.762Z,25.02
2022-09-06T21:50:20.128Z,33.00
2022-09-06T21:52:46.479Z,24.30
2022-09-06T21:55:15.546Z,25.40
2022-09-06T21:57:42.115Z,24.90
2022-09-06T22:00:08.911Z,22.80
2022-09-06T22:02:35.320Z,27.92
2022-09-06T22:05:01.714Z,22.95
2022-09-06T22:07:28.053Z,26.00
2022-09-06T22:09:54.374Z,24.48
2022-09-06T22:12:20.713Z,23.20
2022-09-06T22:14:47.046Z,22.58
2022-09-06T22:17:13.409Z,21.98
2022-09-06T22:19:39.781Z,20.90
2022-09-06T22:22:06.131Z,24.65
2022-09-06T22:24:32.840Z,21.73
2022-09-06T22:26:59.196Z,23.33
2022-09-06T22:29:25.624Z,23.50
2022-09-06T22:31:52.042Z,22.10
2022-09-06T22:34:18.513Z,21.88
2022-09-06T22:36:44.851Z,21.60
2022-09-06T22:39:11.179Z,21.08
2022-09-06T22:41:37.758Z,21.38
2022-09-06T22:44:05.027Z,22.85
2022-09-06T22:46:31.879Z,19.90
2022-09-06T22:48:58.891Z,21.65
2022-09-06T22:51:25.489Z,21.08
2022-09-06T22:53:51.869Z,20.42
2022-09-06T22:56:18.200Z,20.63
2022-09-06T22:58:44.549Z,22.92
2022-09-06T23:01:14.320Z,20.50
2022-09-06T23:03:41.347Z,20.83
2022-09-06T23:06:08.076Z,19.73
2022-09-06T23:08:37.020Z,21.95
2022-09-06T23:11:05.627Z,20.60
2022-09-06T23:13:32.110Z,20.13
2022-09-06T23:16:07.076Z,22.58
2022-09-06T23:18:33.905Z,22.70
2022-09-06T23:21:08.591Z,21.85
2022-09-06T23:23:35.933Z,20.75
2022-09-06T23:26:28.153Z,25.25
2022-09-06T23:28:54.993Z,20.58
2022-09-06T23:31:21.381Z,20.85
2022-09-06T23:33:52.021Z,18.60
2022-09-06T23:36:18.420Z,17.73
2022-09-06T23:38:44.780Z,22.48
2022-09-06T23:41:11.788Z,23.17
2022-09-06T23:43:40.007Z,17.05
2022-09-06T23:48:34.240Z,22.60
2022-09-06T23:51:00.780Z,20.42
2022-09-06T23:53:27.234Z,23.48
2022-09-06T23:55:53.793Z,25.25
2022-09-06T23:58:20.148Z,27.20
